createdAt,value
2023-08-07T00:07:12.543Z,15.1
2023-08-07T00:17:12.505Z,14.9
2023-08-07T00:27:12.918Z,14.8
2023-08-07T00:37:12.505Z,14.7
2023-08-07T00:47:12.508Z,14.5
2023-08-07T00:57:12.461Z,14.4
2023-08-07T01:07:12.462Z,14.2
2023-08-07T01:17:12.384Z,14
2023-08-07T01:27:12.409Z,13.9
2023-08-07T01:37:12.415Z,13.7
2023-08-07T01:47:14.326Z,13.6
2023-08-07T01:57:12.396Z,13.6
2023-08-07T02:07:12.771Z,13.6
2023-08-07T02:17:12.343Z,13.3
2023-08-07T02:27:12.319Z,13.1
2023-08-07T02:37:12.311Z,13
2023-08-07T02:47:14.211Z,12.9
2023-08-07T03:08:06.642Z,12.8
2023-08-07T03:17:12.273Z,12.6
2023-08-07T03:27:12.222Z,12.9
2023-08-07T03:37:12.223Z,13.2
2023-08-07T03:47:12.616Z,13.1
2023-08-07T03:57:12.224Z,13
2023-08-07T04:07:12.241Z,12.9
2023-08-07T04:17:12.128Z,12.8
2023-08-07T04:27:12.200Z,12.8
2023-08-07T04:37:12.188Z,12.8
2023-08-07T04:47:12.096Z,12.7
2023-08-07T04:57:12.136Z,12.5
2023-08-07T05:07:12.069Z,12.7
2023-08-07T05:17:12.040Z,13.4
2023-08-07T05:27:12.511Z,13.9
2023-08-07T05:37:12.091Z,14.1
2023-08-07T05:47:12.464Z,13.8
2023-08-07T05:57:12.064Z,13.6
2023-08-07T06:07:12.458Z,13.6
2023-08-07T06:27:12.007Z,13.6
2023-08-07T06:37:11.968Z,13.9
2023-08-07T06:47:11.921Z,14.4
2023-08-07T06:57:11.983Z,16
2023-08-07T07:07:11.941Z,17.8
2023-08-07T07:17:11.850Z,19
2023-08-07T07:27:11.895Z,19.3
2023-08-07T07:37:11.874Z,19.7
2023-08-07T07:47:13.927Z,21.5
2023-08-07T07:57:13.799Z,22.8
2023-08-07T08:07:12.259Z,24.1
2023-08-07T08:17:11.819Z,25.4
2023-08-07T08:27:11.793Z,27
2023-08-07T08:37:12.169Z,26.4
2023-08-07T08:47:11.801Z,25.1
2023-08-07T08:57:11.753Z,23.9
2023-08-07T09:07:11.701Z,22.9
2023-08-07T09:17:11.738Z,22.8
2023-08-07T09:27:11.677Z,23.6
2023-08-07T09:37:11.681Z,25.9
2023-08-07T09:47:12.044Z,29.5
2023-08-07T09:57:11.618Z,30.2
2023-08-07T10:07:11.631Z,28.5
2023-08-07T10:17:11.557Z,27.3
2023-08-07T10:27:11.556Z,27.8
2023-08-07T10:37:11.558Z,27.6
2023-08-07T10:47:11.520Z,27.5
2023-08-07T10:57:11.521Z,28.2
2023-08-07T11:07:11.968Z,28.8
2023-08-07T11:17:11.444Z,29
2023-08-07T11:27:11.486Z,27.7
2023-08-07T11:37:11.435Z,25.3
2023-08-07T11:47:11.409Z,25.4
2023-08-07T11:57:11.393Z,27.1
2023-08-07T12:07:11.408Z,26.7
2023-08-07T12:17:11.368Z,25
2023-08-07T12:27:11.391Z,24.9
2023-08-07T12:37:11.363Z,25.1
2023-08-07T12:47:11.390Z,25
2023-08-07T12:57:11.306Z,24.7
2023-08-07T13:07:11.763Z,23.9
2023-08-07T13:17:11.311Z,24.2
2023-08-07T13:27:11.249Z,23.6
2023-08-07T13:37:11.226Z,23.2
2023-08-07T13:47:11.204Z,22.8
2023-08-07T13:57:11.187Z,22.8
2023-08-07T14:07:11.586Z,23
2023-08-07T14:17:13.070Z,23
2023-08-07T14:27:11.598Z,24.1
2023-08-07T14:37:11.552Z,24.9
2023-08-07T14:47:11.082Z,25.2
2023-08-07T14:57:11.125Z,24.9
2023-08-07T15:07:11.626Z,25.4
2023-08-07T15:17:11.014Z,26.4
2023-08-07T15:27:11.475Z,25.6
2023-08-07T15:37:11.029Z,25
2023-08-07T15:47:10.985Z,24.4
2023-08-07T15:57:11.001Z,24.2
2023-08-07T16:07:10.984Z,24.2
2023-08-07T16:17:10.894Z,24.4
2023-08-07T16:27:11.374Z,24.6
2023-08-07T16:37:10.907Z,24.5
2023-08-07T16:47:10.851Z,24
2023-08-07T16:57:10.879Z,23.8
2023-08-07T17:07:10.841Z,23.5
2023-08-07T17:17:10.832Z,23.4
2023-08-07T17:27:11.255Z,23.1
2023-08-07T17:37:10.818Z,22.8
2023-08-07T17:47:10.761Z,22.7
2023-08-07T17:57:11.202Z,22.2
2023-08-07T18:07:12.693Z,22
2023-08-07T18:17:10.723Z,21.7
2023-08-07T18:27:13.025Z,21.5
2023-08-07T18:37:10.673Z,21.3
2023-08-07T18:47:10.678Z,21.2
2023-08-07T18:57:10.701Z,21.1
2023-08-07T19:07:10.621Z,20.9
2023-08-07T19:17:10.585Z,20.8
2023-08-07T19:27:10.601Z,20.6
2023-08-07T19:37:10.593Z,20.5
2023-08-07T19:47:12.199Z,20.3
2023-08-07T19:57:10.557Z,20.3
2023-08-07T20:07:10.573Z,20.2
2023-08-07T20:17:10.494Z,20
2023-08-07T20:27:10.497Z,19.8
2023-08-07T20:37:10.484Z,19.8
2023-08-07T20:47:10.875Z,19.8
2023-08-07T20:57:10.440Z,19.6
2023-08-07T21:07:10.426Z,19.6
2023-08-07T21:17:10.813Z,19.5
2023-08-07T21:27:10.450Z,19.5
2023-08-07T21:37:10.361Z,19.3
2023-08-07T21:47:10.343Z,19.4
2023-08-07T21:57:10.347Z,19.3
2023-08-07T22:07:10.737Z,19.1
2023-08-07T22:17:10.292Z,18.7
2023-08-07T22:27:10.747Z,18.6
2023-08-07T22:37:10.287Z,18.5
2023-08-07T22:47:10.232Z,18.2
2023-08-07T22:57:10.284Z,18
2023-08-07T23:07:10.224Z,17.8
2023-08-07T23:17:10.158Z,17.4
2023-08-07T23:27:10.238Z,17.3
2023-08-07T23:37:10.190Z,17.1
2023-08-07T23:47:10.107Z,16.9
2023-08-07T23:57:10.096Z,16.8
